createdAt,value
2019-06-10T00:00:22.053Z,0.00
2019-06-10T00:01:22.054Z,0.00
2019-06-10T00:02:22.069Z,0.00
2019-06-10T00:03:22.143Z,0.00
2019-06-10T00:04:22.382Z,0.00
2019-06-10T00:05:22.090Z,0.00
2019-06-10T00:06:22.113Z,0.00
2019-06-10T00:07:22.123Z,0.00
2019-06-10T00:08:22.128Z,0.00
2019-06-10T00:09:22.213Z,0.00
2019-06-10T00:10:22.147Z,0.00
2019-06-10T00:11:22.160Z,0.00
2019-06-10T00:12:22.170Z,0.00
2019-06-10T00:13:22.181Z,0.00
2019-06-10T00:14:22.194Z,0.00
2019-06-10T00:15:22.199Z,0.00
2019-06-10T00:16:22.212Z,0.00
2019-06-10T00:17:22.220Z,0.00
2019-06-10T00:18:35.325Z,0.00
2019-06-10T00:19:22.249Z,0.00
2019-06-10T00:20:22.250Z,0.00
2019-06-10T00:21:22.266Z,0.00
2019-06-10T00:22:22.284Z,0.00
2019-06-10T00:23:22.280Z,0.00
2019-06-10T00:24:22.300Z,0.00
2019-06-10T00:25:22.300Z,0.00
2019-06-10T00:26:22.306Z,0.00
2019-06-10T00:27:22.323Z,0.00
2019-06-10T00:28:22.332Z,0.00
2019-06-10T00:29:22.524Z,0.00
2019-06-10T00:30:22.385Z,0.00
2019-06-10T00:31:22.361Z,0.00
2019-06-10T00:32:22.367Z,0.00
2019-06-10T00:33:22.382Z,0.00
2019-06-10T00:34:22.396Z,0.00
2019-06-10T00:35:22.402Z,0.00
2019-06-10T00:36:22.415Z,0.00
2019-06-10T00:37:22.422Z,0.00
2019-06-10T00:38:22.434Z,0.00
2019-06-10T00:39:22.451Z,0.00
2019-06-10T00:40:22.454Z,0.00
2019-06-10T00:41:22.461Z,0.00
2019-06-10T00:42:22.472Z,0.00
2019-06-10T00:43:22.486Z,0.00
2019-06-10T00:44:22.496Z,0.00
2019-06-10T00:45:22.511Z,0.00
2019-06-10T00:46:22.517Z,0.00
2019-06-10T00:47:22.521Z,0.00
2019-06-10T00:48:28.430Z,0.00
2019-06-10T00:49:22.544Z,0.00
2019-06-10T00:50:22.572Z,0.00
2019-06-10T00:51:22.561Z,0.00
2019-06-10T00:52:22.575Z,0.00
2019-06-10T00:53:22.584Z,0.00
2019-06-10T00:54:22.587Z,0.00
2019-06-10T00:55:22.605Z,0.00
2019-06-10T00:56:22.607Z,0.00
2019-06-10T00:57:22.620Z,0.00
2019-06-10T00:58:22.629Z,0.00
2019-06-10T00:59:22.638Z,0.00
2019-06-10T10:02:49.768Z,20544.00
2019-06-10T10:03:50.345Z,19648.00
2019-06-10T10:04:50.580Z,19488.00
2019-06-10T10:05:59.273Z,19552.00
2019-06-10T10:06:48.964Z,20544.00
2019-06-10T10:07:48.904Z,20992.00
2019-06-10T10:08:52.395Z,20928.00
2019-06-10T10:09:49.847Z,21376.00
2019-06-10T10:10:50.140Z,21280.00
2019-06-10T10:11:48.782Z,20768.00
2019-06-10T10:12:47.856Z,20384.00
2019-06-10T10:13:49.214Z,19360.00
2019-06-10T10:14:48.510Z,17056.00
2019-06-10T10:15:48.115Z,15568.00
2019-06-10T10:16:50.850Z,14908.00
2019-06-10T10:17:49.129Z,17216.00
2019-06-10T10:18:50.048Z,21504.00
2019-06-10T10:19:48.678Z,21792.00
2019-06-10T10:20:49.441Z,19584.00
2019-06-10T10:21:50.168Z,21664.00
2019-06-10T10:22:47.647Z,19808.00
2019-06-10T10:23:56.856Z,20352.00
2019-06-10T10:24:47.582Z,22976.00
2019-06-10T10:25:47.876Z,22464.00
2019-06-10T10:26:48.698Z,21440.00
2019-06-10T10:27:49.498Z,21056.00
2019-06-10T10:28:49.911Z,20000.00
2019-06-10T10:29:48.907Z,20896.00
2019-06-10T10:30:49.174Z,21312.00
2019-06-10T10:31:49.023Z,20800.00
2019-06-10T10:32:49.148Z,20160.00
2019-06-10T10:33:46.832Z,20800.00
2019-06-10T10:34:48.346Z,22112.00
2019-06-10T10:35:48.016Z,21856.00
2019-06-10T10:36:48.451Z,21888.00
2019-06-10T10:37:46.786Z,22016.00
2019-06-10T10:38:46.852Z,22496.00
2019-06-10T10:39:46.824Z,21504.00
2019-06-10T10:40:49.007Z,21536.00
2019-06-10T10:41:48.340Z,20704.00
2019-06-10T10:42:52.297Z,21152.00
2019-06-10T10:43:48.957Z,20448.00
2019-06-10T10:44:50.106Z,20256.00
2019-06-10T10:45:49.082Z,21600.00
2019-06-10T10:46:47.543Z,21120.00
2019-06-10T10:47:47.014Z,19840.00
2019-06-10T10:48:47.142Z,20224.00
2019-06-10T10:49:47.101Z,18848.00
2019-06-10T10:50:47.476Z,18656.00
2019-06-10T10:51:47.063Z,18368.00
2019-06-10T10:52:48.604Z,18336.00
2019-06-10T10:53:57.293Z,19616.00
2019-06-10T10:54:47.994Z,19584.00
2019-06-10T10:55:47.216Z,17952.00
2019-06-10T10:56:49.167Z,18016.00
2019-06-10T10:57:47.334Z,18176.00
2019-06-10T10:58:48.697Z,17696.00
2019-06-10T11:00:49.760Z,16140.00
2019-06-10T11:01:47.541Z,17120.00
2019-06-10T11:02:50.683Z,17632.00
2019-06-10T11:03:48.240Z,18240.00
2019-06-10T11:04:47.946Z,17856.00
2019-06-10T11:05:49.856Z,19360.00
2019-06-10T11:06:47.814Z,19936.00
2019-06-10T11:07:47.742Z,18880.00
2019-06-10T11:08:48.297Z,20032.00
2019-06-10T11:09:48.549Z,22176.00
2019-06-10T11:10:49.154Z,20864.00
2019-06-10T11:11:47.428Z,18592.00
2019-06-10T11:12:47.441Z,20704.00
2019-06-10T11:13:47.467Z,17920.00
2019-06-10T11:14:47.480Z,14876.00
2019-06-10T11:15:47.493Z,14120.00
2019-06-10T11:16:47.516Z,13684.00
2019-06-10T11:18:47.557Z,13740.00
2019-06-10T11:19:47.575Z,13972.00
2019-06-10T11:20:47.590Z,14144.00
2019-06-10T11:21:47.685Z,14160.00
2019-06-10T11:22:47.621Z,17984.00
2019-06-10T11:23:48.109Z,21280.00
2019-06-10T11:24:49.156Z,21664.00
2019-06-10T11:25:47.820Z,22048.00
2019-06-10T11:26:47.883Z,20192.00
2019-06-10T11:27:48.447Z,22624.00
2019-06-10T11:28:47.726Z,21536.00
2019-06-10T11:29:48.164Z,19072.00
2019-06-10T11:30:47.763Z,23328.00
2019-06-10T11:31:48.477Z,22432.00
2019-06-10T11:32:47.988Z,22144.00
2019-06-10T11:33:48.699Z,21792.00
2019-06-10T11:34:47.841Z,17344.00
2019-06-10T11:35:48.780Z,15576.00
2019-06-10T11:36:48.023Z,14668.00
2019-06-10T11:37:48.927Z,13800.00
2019-06-10T11:38:48.570Z,13672.00
2019-06-10T11:39:48.123Z,13604.00
2019-06-10T11:40:49.201Z,13208.00
2019-06-10T11:41:48.171Z,13016.00
2019-06-10T11:42:48.364Z,13068.00
2019-06-10T11:43:48.344Z,13348.00
2019-06-10T11:44:48.415Z,14360.00
2019-06-10T11:45:52.601Z,14220.00
2019-06-10T11:46:48.603Z,14772.00
2019-06-10T11:47:49.342Z,14572.00
2019-06-10T11:48:48.996Z,15812.00
2019-06-10T11:49:48.999Z,14356.00
2019-06-10T11:50:49.192Z,14244.00
2019-06-10T11:51:49.101Z,14628.00
2019-06-10T11:52:49.551Z,18880.00
2019-06-10T11:53:48.856Z,19840.00
2019-06-10T11:55:01.669Z,20416.00
2019-06-10T11:55:48.204Z,19520.00
2019-06-10T11:56:48.226Z,20672.00
2019-06-10T11:57:48.245Z,16992.00
2019-06-10T11:58:48.261Z,13216.00
2019-06-10T11:59:48.276Z,12376.00
2019-06-10T12:00:48.713Z,11900.00
2019-06-10T12:01:49.796Z,12004.00
2019-06-10T12:02:48.388Z,11836.00
2019-06-10T12:03:48.508Z,11936.00
2019-06-10T12:04:48.396Z,12284.00
2019-06-10T12:05:49.044Z,12912.00
2019-06-10T12:06:48.672Z,13724.00
2019-06-10T12:07:48.880Z,18784.00
2019-06-10T12:08:48.921Z,19360.00
2019-06-10T12:09:48.972Z,17408.00
2019-06-10T12:10:49.012Z,20896.00
2019-06-10T12:11:49.118Z,19264.00
2019-06-10T12:12:48.936Z,20448.00
2019-06-10T12:13:49.116Z,16272.00
2019-06-10T12:14:49.332Z,16028.00
2019-06-10T12:16:25.434Z,16484.00
2019-06-10T12:17:20.017Z,16268.00
2019-06-10T12:17:55.538Z,19136.00
2019-06-10T12:18:49.054Z,16276.00
2019-06-10T12:19:49.813Z,14404.00
2019-06-10T12:20:49.602Z,14028.00
2019-06-10T12:21:49.744Z,14204.00
2019-06-10T12:22:49.509Z,14424.00
2019-06-10T12:23:49.703Z,13732.00
2019-06-10T12:24:50.206Z,13164.00
2019-06-10T12:25:49.723Z,12708.00
2019-06-10T12:26:49.815Z,12096.00
2019-06-10T12:27:50.453Z,12116.00
2019-06-10T12:28:50.027Z,12260.00
2019-06-10T12:29:50.021Z,12356.00
2019-06-10T12:30:50.325Z,13044.00
2019-06-10T12:31:48.841Z,13848.00
2019-06-10T12:32:48.859Z,12868.00
2019-06-10T12:33:48.884Z,12748.00
2019-06-10T12:34:48.893Z,12648.00
2019-06-10T12:35:48.913Z,12480.00
2019-06-10T12:36:48.927Z,12152.00
2019-06-10T12:37:48.944Z,12108.00
2019-06-10T12:38:48.963Z,12732.00
2019-06-10T12:39:48.974Z,13772.00
2019-06-10T12:40:48.993Z,14472.00
2019-06-10T12:41:49.014Z,14648.00
2019-06-10T12:42:49.027Z,14520.00
2019-06-10T12:43:49.047Z,14732.00
2019-06-10T12:44:49.071Z,16036.00
2019-06-10T12:45:49.077Z,15668.00
2019-06-10T12:46:49.096Z,17760.00
2019-06-10T12:47:49.115Z,18752.00
2019-06-10T12:48:49.138Z,18752.00
2019-06-10T12:49:49.145Z,17568.00
2019-06-10T12:50:49.159Z,17024.00
2019-06-10T12:51:49.209Z,16672.00
2019-06-10T12:52:49.193Z,17024.00
2019-06-10T12:53:49.223Z,17344.00
2019-06-10T12:54:49.232Z,15912.00
2019-06-10T12:55:49.256Z,16736.00
2019-06-10T12:56:49.265Z,15932.00
2019-06-10T12:57:49.279Z,14348.00
2019-06-10T12:58:49.300Z,14428.00
2019-06-10T12:59:49.312Z,14168.00
2019-06-10T13:00:49.333Z,13608.00
2019-06-10T13:01:49.354Z,13512.00
2019-06-10T13:02:49.363Z,13396.00
2019-06-10T13:03:49.384Z,14152.00
2019-06-10T13:04:49.408Z,14136.00
2019-06-10T13:05:49.426Z,13496.00
2019-06-10T13:06:49.436Z,13008.00
2019-06-10T13:07:49.453Z,13116.00
2019-06-10T13:08:49.521Z,13032.00
2019-06-10T13:09:49.491Z,13256.00
2019-06-10T13:10:49.516Z,12960.00
2019-06-10T13:11:49.525Z,13204.00
2019-06-10T13:12:52.382Z,14004.00
2019-06-10T13:13:49.555Z,13772.00
2019-06-10T13:14:51.936Z,14252.00
2019-06-10T13:15:49.590Z,14272.00
2019-06-10T13:16:49.609Z,14276.00
2019-06-10T13:17:49.619Z,12852.00
2019-06-10T13:18:49.644Z,12400.00
2019-06-10T13:19:49.650Z,11896.00
2019-06-10T13:20:49.680Z,11272.00
2019-06-10T13:21:49.698Z,11136.00
2019-06-10T13:22:49.710Z,10116.00
2019-06-10T13:23:49.721Z,9488.00
2019-06-10T13:24:49.742Z,9084.00
2019-06-10T13:25:55.369Z,8792.00
2019-06-10T13:26:52.243Z,8736.00
2019-06-10T13:27:51.441Z,8576.00
2019-06-10T13:28:52.266Z,8536.00
2019-06-10T13:29:49.839Z,8776.00
2019-06-10T13:30:49.849Z,8812.00
2019-06-10T13:31:49.851Z,9068.00
2019-06-10T13:32:52.545Z,9416.00
2019-06-10T13:33:49.892Z,9656.00
2019-06-10T13:34:49.899Z,9684.00
2019-06-10T13:35:49.919Z,9540.00
2019-06-10T13:36:49.935Z,9508.00
2019-06-10T13:37:52.185Z,9424.00
2019-06-10T13:38:49.977Z,9964.00
2019-06-10T13:39:52.296Z,8828.00
2019-06-10T13:40:50.010Z,8436.00
2019-06-10T13:41:50.017Z,8368.00
2019-06-10T13:42:50.032Z,7928.00
2019-06-10T13:43:52.513Z,8168.00
2019-06-10T13:44:52.175Z,7916.00
2019-06-10T13:45:50.090Z,8400.00
2019-06-10T13:46:50.100Z,7976.00
2019-06-10T13:47:50.107Z,7960.00
2019-06-10T13:48:52.193Z,8100.00
2019-06-10T13:49:50.135Z,8104.00
2019-06-10T13:50:50.165Z,8644.00
2019-06-10T13:51:52.781Z,8100.00
2019-06-10T13:52:52.182Z,7832.00
2019-06-10T13:53:50.206Z,7424.00
2019-06-10T13:54:52.227Z,7184.00
2019-06-10T13:55:56.953Z,6852.00
2019-06-10T13:56:52.360Z,6728.00
2019-06-10T13:57:50.269Z,6544.00
2019-06-10T13:58:52.291Z,6496.00
2019-06-10T13:59:52.001Z,6316.00
2019-06-10T14:00:53.344Z,6064.00
2019-06-10T14:01:50.331Z,5844.00
2019-06-10T14:02:52.255Z,5684.00
2019-06-10T14:03:50.351Z,5648.00
2019-06-10T14:04:50.380Z,5740.00
2019-06-10T14:05:57.826Z,5984.00
2019-06-10T14:06:53.750Z,6380.00
2019-06-10T14:07:52.122Z,6592.00
2019-06-10T14:08:52.172Z,6772.00
2019-06-10T14:09:50.462Z,6896.00
2019-06-10T14:10:50.473Z,6876.00
2019-06-10T14:11:50.489Z,6712.00
2019-06-10T14:12:52.527Z,6568.00
2019-06-10T14:13:52.690Z,6452.00
2019-06-10T14:14:53.157Z,6552.00
2019-06-10T14:15:52.989Z,6636.00
2019-06-10T14:16:53.034Z,6836.00
2019-06-10T14:17:52.607Z,7168.00
2019-06-10T14:18:51.719Z,7512.00
2019-06-10T14:19:50.616Z,7860.00
2019-06-10T14:20:53.138Z,8252.00
2019-06-10T14:21:50.643Z,8668.00
2019-06-10T14:22:52.847Z,9164.00
2019-06-10T14:23:50.670Z,9752.00
2019-06-10T14:24:52.892Z,10552.00
2019-06-10T14:25:52.553Z,11096.00
2019-06-10T14:26:52.962Z,11892.00
2019-06-10T14:27:53.072Z,11888.00
2019-06-10T14:28:52.589Z,12000.00
2019-06-10T14:29:52.861Z,11724.00
2019-06-10T14:30:53.378Z,11684.00
2019-06-10T14:31:53.312Z,11980.00
2019-06-10T14:32:52.902Z,12464.00
2019-06-10T14:33:53.118Z,12636.00
2019-06-10T14:34:52.659Z,13296.00
2019-06-10T14:35:53.092Z,13560.00
2019-06-10T14:36:52.476Z,13368.00
2019-06-10T14:37:53.313Z,12108.00
2019-06-10T14:38:50.907Z,11936.00
2019-06-10T14:39:52.898Z,11948.00
2019-06-10T14:40:52.590Z,12720.00
2019-06-10T14:41:52.289Z,11788.00
2019-06-10T14:42:52.494Z,12436.00
2019-06-10T14:43:53.131Z,13544.00
2019-06-10T14:44:52.647Z,13688.00
2019-06-10T14:45:53.511Z,13720.00
2019-06-10T14:46:53.012Z,13916.00
2019-06-10T14:47:54.252Z,13692.00
2019-06-10T14:48:53.146Z,13632.00
2019-06-10T14:49:53.022Z,11864.00
2019-06-10T14:50:51.105Z,11320.00
2019-06-10T14:51:53.644Z,11524.00
2019-06-10T14:52:51.148Z,9968.00
2019-06-10T14:53:51.829Z,9936.00
2019-06-10T14:54:53.243Z,9592.00
2019-06-10T14:55:53.205Z,9400.00
2019-06-10T14:56:56.888Z,9264.00
2019-06-10T14:57:53.272Z,9364.00
2019-06-10T14:58:52.924Z,9688.00
2019-06-10T14:59:53.132Z,10180.00
2019-06-10T15:00:54.135Z,10588.00
2019-06-10T15:01:52.163Z,11144.00
2019-06-10T15:02:53.856Z,10612.00
2019-06-10T15:03:52.279Z,11088.00
2019-06-10T15:04:53.174Z,11392.00
2019-06-10T15:05:52.920Z,10084.00
2019-06-10T15:06:53.509Z,10236.00
2019-06-10T15:07:52.848Z,10784.00
2019-06-10T15:08:53.325Z,10836.00
2019-06-10T15:09:52.614Z,10428.00
2019-06-10T15:10:52.756Z,11160.00
2019-06-10T15:11:52.134Z,10960.00
2019-06-10T15:12:52.891Z,10936.00
2019-06-10T15:13:52.370Z,10972.00
2019-06-10T15:14:52.108Z,11368.00
2019-06-10T15:15:53.276Z,11032.00
2019-06-10T15:16:53.437Z,10956.00
2019-06-10T15:17:52.524Z,10916.00
2019-06-10T15:18:52.596Z,10448.00
2019-06-10T15:19:53.032Z,10788.00
2019-06-10T15:20:53.448Z,10644.00
2019-06-10T15:21:52.336Z,10364.00
2019-06-10T15:22:52.709Z,10944.00
2019-06-10T15:23:52.356Z,10712.00
2019-06-10T15:24:53.218Z,10216.00
2019-06-10T15:25:53.968Z,8960.00
2019-06-10T15:27:08.341Z,8400.00
2019-06-10T15:27:52.623Z,7872.00
2019-06-10T15:28:52.242Z,7304.00
2019-06-10T15:29:52.527Z,6796.00
2019-06-10T15:30:52.422Z,6404.00
2019-06-10T15:32:06.059Z,6180.00
2019-06-10T15:32:52.452Z,6008.00
2019-06-10T15:33:52.465Z,6016.00
2019-06-10T15:34:52.462Z,6016.00
2019-06-10T15:35:53.243Z,5952.00
2019-06-10T15:36:52.777Z,5904.00
2019-06-10T15:37:52.751Z,5752.00
2019-06-10T15:38:52.594Z,5648.00
2019-06-10T15:39:52.839Z,5588.00
2019-06-10T15:40:53.297Z,5508.00
2019-06-10T15:41:52.320Z,5480.00
2019-06-10T15:42:53.269Z,5420.00
2019-06-10T15:43:53.028Z,5324.00
2019-06-10T15:44:55.245Z,5280.00
2019-06-10T15:45:52.889Z,5372.00
2019-06-10T15:46:52.545Z,5456.00
2019-06-10T15:47:53.155Z,5592.00
2019-06-10T15:48:54.117Z,5732.00
2019-06-10T15:49:52.561Z,5796.00
2019-06-10T15:50:52.078Z,5796.00
2019-06-10T15:51:52.606Z,5736.00
2019-06-10T15:52:52.878Z,5668.00
2019-06-10T15:53:52.121Z,5472.00
2019-06-10T15:54:52.876Z,5368.00
2019-06-10T15:56:16.728Z,5180.00
2019-06-10T15:56:56.164Z,5108.00
2019-06-10T15:57:54.178Z,4736.00
2019-06-10T15:58:52.234Z,4448.00
2019-06-10T15:59:52.262Z,4144.00
2019-06-10T16:00:53.366Z,3964.00
2019-06-10T16:01:53.059Z,3792.00
2019-06-10T16:02:52.262Z,3628.00
2019-06-10T16:03:52.842Z,3440.00
2019-06-10T16:04:52.802Z,3272.00
2019-06-10T16:05:52.962Z,3152.00
2019-06-10T16:06:53.057Z,3048.00
2019-06-10T16:07:52.976Z,2956.00
2019-06-10T16:08:52.415Z,2916.00
2019-06-10T16:09:53.370Z,2872.00
2019-06-10T16:10:52.818Z,2840.00
2019-06-10T16:11:53.781Z,2828.00
2019-06-10T16:12:52.873Z,2816.00
2019-06-10T16:13:53.393Z,2796.00
2019-06-10T16:14:53.001Z,2804.00
2019-06-10T16:15:53.293Z,2772.00
2019-06-10T16:16:52.706Z,2784.00
2019-06-10T16:17:53.538Z,2868.00
2019-06-10T16:18:52.904Z,2912.00
2019-06-10T16:19:53.182Z,2956.00
2019-06-10T16:20:53.023Z,2904.00
2019-06-10T16:21:52.642Z,2788.00
2019-06-10T16:22:52.565Z,2644.00
2019-06-10T16:23:53.316Z,2380.00
2019-06-10T16:24:52.652Z,2176.00
2019-06-10T16:25:53.459Z,2024.00
2019-06-10T16:26:52.714Z,1912.00
2019-06-10T16:27:54.391Z,1844.00
2019-06-10T16:28:52.637Z,1784.00
2019-06-10T16:29:53.010Z,1780.00
2019-06-10T16:30:53.828Z,1748.00
2019-06-10T16:31:52.954Z,1700.00
2019-06-10T16:32:53.078Z,1660.00
2019-06-10T16:33:52.867Z,1616.00
2019-06-10T16:34:52.722Z,1580.00
2019-06-10T16:35:52.737Z,1568.00
2019-06-10T16:36:53.212Z,1556.00
2019-06-10T16:37:55.895Z,1560.00
2019-06-10T16:38:52.940Z,1544.00
2019-06-10T16:39:52.787Z,1540.00
2019-06-10T16:40:53.622Z,1516.00
2019-06-10T16:41:52.819Z,1488.00
2019-06-10T16:42:53.331Z,1464.00
2019-06-10T16:43:52.850Z,1420.00
2019-06-10T16:44:52.881Z,1384.00
2019-06-10T16:45:52.883Z,1360.00
2019-06-10T16:46:52.900Z,1352.00
2019-06-10T16:47:53.159Z,1364.00
2019-06-10T16:48:52.928Z,1408.00
2019-06-10T16:49:52.929Z,1440.00
2019-06-10T16:50:54.338Z,1488.00
2019-06-10T16:51:52.959Z,1544.00
2019-06-10T16:52:53.656Z,1592.00
2019-06-10T16:53:53.051Z,1600.00
2019-06-10T16:54:52.997Z,1580.00
2019-06-10T16:55:53.195Z,1520.00
2019-06-10T16:56:53.030Z,1424.00
2019-06-10T16:57:59.232Z,1280.00
2019-06-10T16:58:53.045Z,1156.00
2019-06-10T16:59:53.068Z,1020.00
2019-06-10T17:00:53.080Z,924.00
2019-06-10T17:01:53.219Z,864.00
2019-06-10T17:02:53.157Z,792.00
2019-06-10T17:03:53.127Z,728.00
2019-06-10T17:04:53.148Z,656.00
2019-06-10T17:05:53.913Z,600.00
2019-06-10T17:06:53.167Z,544.00
2019-06-10T17:07:53.177Z,516.00
2019-06-10T17:08:53.195Z,484.00
2019-06-10T17:09:53.206Z,464.00
2019-06-10T17:10:53.226Z,424.00
2019-06-10T17:11:53.236Z,404.00
2019-06-10T17:12:53.242Z,364.00
2019-06-10T17:13:53.257Z,340.00
2019-06-10T17:14:53.907Z,328.00
2019-06-10T17:15:53.836Z,324.00
2019-06-10T17:16:53.291Z,332.00
2019-06-10T17:17:53.316Z,340.00
2019-06-10T17:18:53.323Z,348.00
2019-06-10T17:19:53.341Z,364.00
2019-06-10T17:20:53.716Z,384.00
2019-06-10T17:21:53.365Z,408.00
2019-06-10T17:22:53.377Z,420.00
2019-06-10T17:23:53.399Z,440.00
2019-06-10T17:24:53.729Z,456.00
2019-06-10T17:25:53.570Z,492.00
2019-06-10T17:26:53.432Z,512.00
2019-06-10T17:27:53.439Z,524.00
2019-06-10T17:28:53.453Z,532.00
2019-06-10T17:29:53.472Z,524.00
2019-06-10T17:30:53.486Z,544.00
2019-06-10T17:31:53.497Z,552.00
2019-06-10T17:32:53.515Z,576.00
2019-06-10T17:33:53.524Z,600.00
2019-06-10T17:34:53.535Z,620.00
2019-06-10T17:35:53.549Z,612.00
2019-06-10T17:36:53.986Z,592.00
2019-06-10T17:37:53.579Z,564.00
2019-06-10T17:38:53.585Z,528.00
2019-06-10T17:39:53.599Z,488.00
2019-06-10T17:40:53.615Z,472.00
2019-06-10T17:41:53.626Z,472.00
2019-06-10T17:42:53.635Z,464.00
2019-06-10T17:43:53.645Z,468.00
2019-06-10T17:44:53.655Z,464.00
2019-06-10T17:45:53.671Z,468.00
2019-06-10T17:46:53.687Z,476.00
2019-06-10T17:47:53.700Z,496.00
2019-06-10T17:48:53.707Z,500.00
2019-06-10T17:49:53.719Z,528.00
2019-06-10T17:50:53.723Z,544.00
2019-06-10T17:51:53.748Z,552.00
2019-06-10T17:52:53.764Z,548.00
2019-06-10T17:53:53.772Z,532.00
2019-06-10T17:54:53.786Z,508.00
2019-06-10T17:55:53.789Z,488.00
2019-06-10T17:56:53.805Z,468.00
2019-06-10T17:57:53.817Z,436.00
2019-06-10T17:58:57.634Z,412.00
2019-06-10T17:59:53.845Z,384.00
2019-06-10T18:00:53.851Z,364.00
2019-06-10T18:01:53.867Z,352.00
2019-06-10T18:02:53.872Z,348.00
2019-06-10T18:03:53.889Z,352.00
2019-06-10T18:04:53.899Z,356.00
2019-06-10T18:05:53.910Z,352.00
2019-06-10T18:06:53.921Z,344.00
2019-06-10T18:07:53.933Z,332.00
2019-06-10T18:08:53.943Z,324.00
2019-06-10T18:09:53.954Z,316.00
2019-06-10T18:10:53.977Z,316.00
2019-06-10T18:11:53.996Z,320.00
2019-06-10T18:12:53.986Z,332.00
2019-06-10T18:13:54.001Z,348.00
2019-06-10T18:14:54.013Z,352.00
2019-06-10T18:15:54.026Z,352.00
2019-06-10T18:16:54.036Z,344.00
2019-06-10T18:17:55.972Z,340.00
2019-06-10T18:18:54.067Z,336.00
2019-06-10T18:19:54.067Z,348.00
2019-06-10T18:20:54.078Z,352.00
2019-06-10T18:21:54.091Z,360.00
2019-06-10T18:22:54.123Z,368.00
2019-06-10T18:23:54.122Z,364.00
2019-06-10T18:24:54.124Z,364.00
2019-06-10T18:25:54.150Z,352.00
2019-06-10T18:26:54.160Z,352.00
2019-06-10T18:27:54.164Z,340.00
2019-06-10T18:29:01.951Z,340.00
2019-06-10T18:29:54.179Z,348.00
2019-06-10T18:30:54.191Z,352.00
2019-06-10T18:31:54.216Z,348.00
2019-06-10T18:32:54.227Z,344.00
2019-06-10T18:33:54.230Z,328.00
2019-06-10T18:34:54.237Z,312.00
2019-06-10T18:35:54.246Z,300.00
2019-06-10T18:36:54.254Z,284.00
2019-06-10T18:37:54.278Z,276.00
2019-06-10T18:38:54.282Z,268.00
2019-06-10T18:39:54.290Z,264.00
2019-06-10T18:40:54.299Z,260.00
2019-06-10T18:41:54.311Z,252.00
2019-06-10T18:42:54.324Z,248.00
2019-06-10T18:43:54.343Z,236.00
2019-06-10T18:44:54.355Z,216.00
2019-06-10T18:45:54.359Z,196.00
2019-06-10T18:46:54.362Z,184.00
2019-06-10T18:47:54.373Z,184.00
2019-06-10T18:48:54.381Z,180.00
2019-06-10T18:49:54.398Z,180.00
2019-06-10T18:50:54.411Z,188.00
2019-06-10T18:51:54.417Z,192.00
2019-06-10T18:52:57.400Z,196.00
2019-06-10T18:53:54.441Z,196.00
2019-06-10T18:54:54.949Z,192.00
2019-06-10T18:55:55.008Z,192.00
2019-06-10T18:56:54.475Z,188.00
2019-06-10T18:57:54.480Z,180.00
2019-06-10T18:58:54.491Z,180.00
2019-06-10T18:59:54.511Z,188.00
2019-06-10T19:01:03.620Z,196.00
2019-06-10T19:01:54.534Z,208.00
2019-06-10T19:03:09.325Z,204.00
2019-06-10T19:03:54.549Z,200.00
2019-06-10T19:04:54.822Z,192.00
2019-06-10T19:05:54.572Z,180.00
2019-06-10T19:06:54.584Z,172.00
2019-06-10T19:07:54.601Z,164.00
2019-06-10T19:08:54.603Z,160.00
2019-06-10T19:09:54.615Z,164.00
2019-06-10T19:10:55.461Z,168.00
2019-06-10T19:11:54.661Z,180.00
2019-06-10T19:12:54.650Z,196.00
2019-06-10T19:13:54.683Z,212.00
2019-06-10T19:14:54.683Z,244.00
2019-06-10T19:15:54.687Z,276.00
2019-06-10T19:16:54.701Z,300.00
2019-06-10T19:17:54.702Z,312.00
2019-06-10T19:18:54.717Z,328.00
2019-06-10T19:19:54.721Z,336.00
2019-06-10T19:20:54.735Z,340.00
2019-06-10T19:22:05.247Z,340.00
2019-06-10T19:22:54.762Z,336.00
2019-06-10T19:23:54.777Z,336.00
2019-06-10T19:24:54.782Z,332.00
2019-06-10T19:25:54.786Z,324.00
2019-06-10T19:26:58.266Z,316.00
2019-06-10T19:27:54.818Z,304.00
2019-06-10T19:28:57.370Z,292.00
2019-06-10T19:29:55.138Z,280.00
2019-06-10T19:30:54.843Z,268.00
2019-06-10T19:31:54.858Z,260.00
2019-06-10T19:32:54.866Z,248.00
2019-06-10T19:33:54.878Z,236.00
2019-06-10T19:34:54.902Z,220.00
2019-06-10T19:35:54.904Z,208.00
2019-06-10T19:36:54.911Z,196.00
2019-06-10T19:37:54.921Z,184.00
2019-06-10T19:38:54.938Z,172.00
2019-06-10T19:39:54.943Z,160.00
2019-06-10T19:40:54.960Z,148.00
2019-06-10T19:41:54.965Z,136.00
2019-06-10T19:42:54.977Z,128.00
2019-06-10T19:43:54.988Z,120.00
2019-06-10T19:44:54.999Z,112.00
2019-06-10T19:45:55.040Z,104.00
2019-06-10T19:46:55.031Z,100.00
2019-06-10T19:47:56.801Z,92.00
2019-06-10T19:49:01.635Z,84.00
2019-06-10T19:49:55.056Z,76.00
2019-06-10T19:50:55.063Z,72.00
2019-06-10T19:51:55.077Z,64.00
2019-06-10T19:52:55.087Z,60.00
2019-06-10T19:53:55.095Z,56.00
2019-06-10T19:54:55.100Z,52.00
2019-06-10T19:55:55.124Z,44.00
2019-06-10T19:56:55.125Z,44.00
2019-06-10T19:57:55.139Z,36.00
2019-06-10T19:58:55.144Z,32.00
2019-06-10T20:00:07.392Z,32.00
2019-06-10T20:00:55.191Z,24.00
2019-06-10T20:01:55.179Z,24.00
2019-06-10T20:02:55.193Z,24.00
2019-06-10T20:03:55.203Z,20.00
2019-06-10T20:04:55.216Z,20.00
2019-06-10T20:05:55.223Z,16.00
2019-06-10T20:06:55.231Z,16.00
2019-06-10T20:07:55.241Z,16.00
2019-06-10T20:08:55.256Z,12.00
2019-06-10T20:09:55.266Z,12.00
2019-06-10T20:10:55.264Z,12.00
2019-06-10T20:11:55.289Z,12.00
2019-06-10T20:12:55.289Z,8.00
2019-06-10T20:13:55.297Z,8.00
2019-06-10T20:14:56.893Z,8.00
2019-06-10T20:15:55.429Z,4.00
2019-06-10T20:16:55.438Z,4.00
2019-06-10T20:17:55.491Z,4.00
2019-06-10T20:18:55.504Z,4.00
2019-06-10T20:19:56.071Z,0.00
2019-06-10T20:20:55.401Z,0.00
2019-06-10T20:21:55.467Z,0.00
2019-06-10T20:22:57.576Z,4.00
2019-06-10T20:23:55.586Z,0.00
2019-06-10T20:24:55.493Z,0.00
2019-06-10T20:25:55.504Z,0.00
2019-06-10T20:26:55.444Z,0.00
2019-06-10T20:27:55.462Z,0.00
2019-06-10T20:28:55.582Z,0.00
2019-06-10T20:30:09.351Z,0.00
2019-06-10T20:30:55.488Z,0.00
2019-06-10T20:31:55.497Z,0.00
2019-06-10T20:32:56.478Z,0.00
2019-06-10T20:33:55.538Z,0.00
2019-06-10T20:34:55.534Z,0.00
2019-06-10T20:35:55.552Z,0.00
2019-06-10T20:36:55.559Z,0.00
2019-06-10T20:37:55.569Z,0.00
2019-06-10T20:38:55.582Z,0.00
2019-06-10T20:39:55.585Z,0.00
2019-06-10T20:40:55.598Z,0.00
2019-06-10T20:41:56.032Z,4.00
2019-06-10T20:42:55.619Z,0.00
2019-06-10T20:43:55.673Z,0.00
2019-06-10T20:44:55.643Z,0.00
2019-06-10T20:45:58.244Z,0.00
2019-06-10T20:46:55.650Z,0.00
2019-06-10T20:47:55.689Z,0.00
2019-06-10T20:48:55.681Z,0.00
2019-06-10T20:49:56.202Z,0.00
2019-06-10T20:50:55.702Z,0.00
2019-06-10T20:52:08.014Z,0.00
2019-06-10T20:53:10.721Z,0.00
2019-06-10T20:53:55.738Z,0.00
2019-06-10T20:54:55.758Z,0.00
2019-06-10T20:55:57.721Z,0.00
2019-06-10T20:56:55.772Z,0.00
2019-06-10T20:58:03.314Z,0.00
2019-06-10T20:58:55.789Z,0.00
2019-06-10T20:59:55.803Z,0.00
2019-06-10T21:00:57.219Z,0.00
2019-06-10T21:01:55.826Z,0.00
2019-06-10T21:02:55.827Z,0.00
2019-06-10T21:03:55.838Z,0.00
2019-06-10T21:04:55.895Z,0.00
2019-06-10T21:05:55.865Z,0.00
2019-06-10T21:06:55.896Z,0.00
2019-06-10T21:07:55.883Z,0.00
2019-06-10T21:08:55.912Z,0.00
2019-06-10T21:09:55.911Z,0.00
2019-06-10T21:10:55.914Z,0.00
2019-06-10T21:11:55.924Z,0.00
2019-06-10T21:12:55.956Z,0.00
2019-06-10T21:13:56.061Z,0.00
2019-06-10T21:14:55.959Z,0.00
2019-06-10T21:15:59.189Z,0.00
2019-06-10T21:16:55.973Z,0.00
2019-06-10T21:17:55.996Z,0.00
2019-06-10T21:18:56.002Z,0.00
2019-06-10T21:19:56.008Z,0.00
2019-06-10T21:20:56.393Z,0.00